PWSweather.com
Personal Weather Stations
Station Observations
BREAKEY01
Lévis, Breakeyville, QC G0S 1E1

LévisBreakeyville, QC G0S 1E1

Lat: 46.681, Lon: -71.224

Elevation: 328

Station Type: Davis Vantage Pro2

http://www.meteobreakey.webou.net/topic/index.php

Latest ConditionsUpdated 12:22:04 PM EDT Monday, Jul 28, 2014
Currently Today's Max Today's Min Today's Average
Temperature 65.5°F18.6°C 65.5°F18.6°C 62.4°F16.9°C 63.1°F17.3°C
Dew Point 60.3°F15.7°C 62.8°F17.1°C 60.3°F15.7°C 61.5°F16.4°C
Winds 8.1 mph E13.0 kmh E 8.9 mph E14.3 kmh E - 2.4 mph 3.9 kmh
Wind Gusts 4.9 mph7.9 kmh 12.1 mph19.5 kmh - -
Humidity 83% 97% 83% 94%
Pressure 29.67 in1004.7 mb 29.69 in1005.4 mb 29.61 in1002.7 mb -
Hour Temp Dew Point Humidity Winds Wind Gusts Pressure Precip Precip Rate Daily Precip Total
12:22 PM 65.5°F18.6°C 60.3°F15.7°C 83% 8.1 mph E13.0 kmh E 4.9 mph7.9 kmh 29.67 in1004.7 mb 0.00 in0.0 mm 0.00 in/hr0.0 mm/hr 0.00 in0.0 mm
12:17 PM 65.5°F18.6°C 60.3°F15.7°C 83% 8.1 mph ENE13.0 kmh ENE 10.1 mph16.3 kmh 29.67 in1004.7 mb 0.00 in0.0 mm 0.00 in/hr0.0 mm/hr 0.00 in0.0 mm
12:12 PM 65.5°F18.6°C 60.4°F15.8°C 84% 6.9 mph E11.1 kmh E 4.0 mph6.4 kmh 29.67 in1004.7 mb 0.00 in0.0 mm 0.00 in/hr0.0 mm/hr 0.00 in0.0 mm
12:07 PM 65.5°F18.6°C 60.4°F15.8°C 84% 8.1 mph E13.0 kmh E 10.1 mph16.3 kmh 29.67 in1004.7 mb 0.00 in0.0 mm 0.00 in/hr0.0 mm/hr 0.00 in0.0 mm
12:02 PM 65.5°F18.6°C 60.4°F15.8°C 84% 8.1 mph ENE13.0 kmh ENE 8.1 mph13.0 kmh 29.67 in1004.7 mb 0.00 in0.0 mm 0.00 in/hr0.0 mm/hr 0.00 in0.0 mm
11:57 AM 65.5°F18.6°C 60.4°F15.8°C 84% 8.1 mph E13.0 kmh E 11.0 mph17.7 kmh 29.68 in1005.1 mb 0.00 in0.0 mm 0.00 in/hr0.0 mm/hr 0.00 in0.0 mm
11:52 AM 65.5°F18.6°C 60.8°F16.0°C 85% 6.9 mph NE11.1 kmh NE 8.9 mph14.3 kmh 29.67 in1004.7 mb 0.00 in0.0 mm 0.00 in/hr0.0 mm/hr 0.00 in0.0 mm
11:47 AM 65.3°F18.5°C 60.6°F15.9°C 85% 6.9 mph ENE11.1 kmh ENE 2.9 mph4.7 kmh 29.68 in1005.1 mb 0.00 in0.0 mm 0.00 in/hr0.0 mm/hr 0.00 in0.0 mm
11:42 AM 65.1°F18.4°C 60.4°F15.8°C 85% 8.1 mph ENE13.0 kmh ENE 4.0 mph6.4 kmh 29.68 in1005.1 mb 0.00 in0.0 mm 0.00 in/hr0.0 mm/hr 0.00 in0.0 mm
11:37 AM 65.1°F18.4°C 60.4°F15.8°C 85% 8.1 mph E13.0 kmh E 8.1 mph13.0 kmh 29.68 in1005.1 mb 0.00 in0.0 mm 0.00 in/hr0.0 mm/hr 0.00 in0.0 mm
11:32 AM 65.1°F18.4°C 60.4°F15.8°C 85% 8.1 mph NE13.0 kmh NE 8.9 mph14.3 kmh 29.68 in1005.1 mb 0.00 in0.0 mm 0.00 in/hr0.0 mm/hr 0.00 in0.0 mm
11:27 AM 65.1°F18.4°C 60.4°F15.8°C 85% 8.9 mph E14.3 kmh E 8.9 mph14.3 kmh 29.67 in1004.7 mb 0.00 in0.0 mm 0.00 in/hr0.0 mm/hr 0.00 in0.0 mm
11:22 AM 65.1°F18.4°C 60.8°F16.0°C 86% 8.1 mph NNE13.0 kmh NNE 8.9 mph14.3 kmh 29.67 in1004.7 mb 0.00 in0.0 mm 0.00 in/hr0.0 mm/hr 0.00 in0.0 mm
11:17 AM 65.3°F18.5°C 60.6°F15.9°C 85% 6.9 mph E11.1 kmh E 11.0 mph17.7 kmh 29.67 in1004.7 mb 0.00 in0.0 mm 0.00 in/hr0.0 mm/hr 0.00 in0.0 mm
11:12 AM 65.1°F18.4°C 61.2°F16.2°C 87% 6.9 mph ENE11.1 kmh ENE 4.9 mph7.9 kmh 29.67 in1004.7 mb 0.00 in0.0 mm 0.00 in/hr0.0 mm/hr 0.00 in0.0 mm
11:07 AM 64.9°F18.3°C 61.0°F16.1°C 87% 6.9 mph ENE11.1 kmh ENE 6.9 mph11.1 kmh 29.67 in1004.7 mb 0.00 in0.0 mm 0.00 in/hr0.0 mm/hr 0.00 in0.0 mm
11:02 AM 64.8°F18.2°C 61.2°F16.2°C 88% 8.1 mph ENE13.0 kmh ENE 6.0 mph9.7 kmh 29.67 in1004.7 mb 0.00 in0.0 mm 0.00 in/hr0.0 mm/hr 0.00 in0.0 mm
10:57 AM 64.4°F18.0°C 61.2°F16.2°C 89% 6.9 mph NE11.1 kmh NE 6.0 mph9.7 kmh 29.67 in1004.7 mb 0.00 in0.0 mm 0.00 in/hr0.0 mm/hr 0.00 in0.0 mm
10:52 AM 64.0°F17.8°C 60.4°F15.8°C 88% 8.1 mph NE13.0 kmh NE 10.1 mph16.3 kmh 29.68 in1005.1 mb 0.00 in0.0 mm 0.00 in/hr0.0 mm/hr 0.00 in0.0 mm
10:47 AM 64.0°F17.8°C 60.4°F15.8°C 88% 6.9 mph ENE11.1 kmh ENE 10.1 mph16.3 kmh 29.68 in1005.1 mb 0.00 in0.0 mm 0.00 in/hr0.0 mm/hr 0.00 in0.0 mm
10:42 AM 64.0°F17.8°C 60.8°F16.0°C 89% 6.0 mph ENE9.7 kmh ENE 12.1 mph19.5 kmh 29.68 in1005.1 mb 0.00 in0.0 mm 0.00 in/hr0.0 mm/hr 0.00 in0.0 mm
10:37 AM 63.9°F17.7°C 60.8°F16.0°C 90% 6.9 mph ENE11.1 kmh ENE 10.1 mph16.3 kmh 29.68 in1005.1 mb 0.00 in0.0 mm 0.00 in/hr0.0 mm/hr 0.00 in0.0 mm
10:32 AM 63.7°F17.6°C 60.4°F15.8°C 89% 6.0 mph E9.7 kmh E 4.0 mph6.4 kmh 29.68 in1005.1 mb 0.00 in0.0 mm 0.00 in/hr0.0 mm/hr 0.00 in0.0 mm
10:27 AM 63.7°F17.6°C 60.6°F15.9°C 90% 6.0 mph ENE9.7 kmh ENE 6.0 mph9.7 kmh 29.68 in1005.1 mb 0.00 in0.0 mm 0.00 in/hr0.0 mm/hr 0.00 in0.0 mm
10:22 AM 63.7°F17.6°C 60.6°F15.9°C 90% 6.0 mph E9.7 kmh E 10.1 mph16.3 kmh 29.68 in1005.1 mb 0.00 in0.0 mm 0.00 in/hr0.0 mm/hr 0.00 in0.0 mm
10:17 AM 63.7°F17.6°C 60.6°F15.9°C 90% 6.0 mph E9.7 kmh E 8.1 mph13.0 kmh 29.68 in1005.1 mb 0.00 in0.0 mm 0.00 in/hr0.0 mm/hr 0.00 in0.0 mm
10:12 AM 63.9°F17.7°C 60.8°F16.0°C 90% 6.9 mph E11.1 kmh E 4.9 mph7.9 kmh 29.68 in1005.1 mb 0.00 in0.0 mm 0.00 in/hr0.0 mm/hr 0.00 in0.0 mm
10:07 AM 64.0°F17.8°C 61.0°F16.1°C 90% 6.9 mph E11.1 kmh E 8.1 mph13.0 kmh 29.68 in1005.1 mb 0.00 in0.0 mm 0.00 in/hr0.0 mm/hr 0.00 in0.0 mm
10:02 AM 64.2°F17.9°C 61.2°F16.2°C 90% 6.9 mph ENE11.1 kmh ENE 8.9 mph14.3 kmh 29.69 in1005.4 mb 0.00 in0.0 mm 0.00 in/hr0.0 mm/hr 0.00 in0.0 mm
09:57 AM 64.2°F17.9°C 61.5°F16.4°C 91% 6.9 mph E11.1 kmh E 8.1 mph13.0 kmh 29.68 in1005.1 mb 0.00 in0.0 mm 0.00 in/hr0.0 mm/hr 0.00 in0.0 mm
09:52 AM 64.2°F17.9°C 61.9°F16.6°C 92% 6.9 mph NE11.1 kmh NE 8.9 mph14.3 kmh 29.67 in1004.7 mb 0.00 in0.0 mm 0.00 in/hr0.0 mm/hr 0.00 in0.0 mm
09:47 AM 64.0°F17.8°C 61.7°F16.5°C 92% 6.0 mph NE9.7 kmh NE 4.0 mph6.4 kmh 29.67 in1004.7 mb 0.00 in0.0 mm 0.00 in/hr0.0 mm/hr 0.00 in0.0 mm
09:42 AM 64.0°F17.8°C 61.7°F16.5°C 92% 4.9 mph ENE7.9 kmh ENE 8.9 mph14.3 kmh 29.68 in1005.1 mb 0.00 in0.0 mm 0.00 in/hr0.0 mm/hr 0.00 in0.0 mm
09:37 AM 63.9°F17.7°C 61.5°F16.4°C 92% 4.9 mph E7.9 kmh E 4.9 mph7.9 kmh 29.68 in1005.1 mb 0.00 in0.0 mm 0.00 in/hr0.0 mm/hr 0.00 in0.0 mm
09:32 AM 63.7°F17.6°C 61.7°F16.5°C 93% 6.0 mph E9.7 kmh E 4.0 mph6.4 kmh 29.67 in1004.7 mb 0.00 in0.0 mm 0.00 in/hr0.0 mm/hr 0.00 in0.0 mm
09:27 AM 63.7°F17.6°C 61.7°F16.5°C 93% 6.9 mph E11.1 kmh E 10.1 mph16.3 kmh 29.67 in1004.7 mb 0.00 in0.0 mm 0.00 in/hr0.0 mm/hr 0.00 in0.0 mm
09:22 AM 63.5°F17.5°C 61.5°F16.4°C 93% 6.9 mph E11.1 kmh E 8.1 mph13.0 kmh 29.67 in1004.7 mb 0.00 in0.0 mm 0.00 in/hr0.0 mm/hr 0.00 in0.0 mm
09:17 AM 63.5°F17.5°C 61.7°F16.5°C 94% 6.0 mph NE9.7 kmh NE 4.9 mph7.9 kmh 29.67 in1004.7 mb 0.00 in0.0 mm 0.00 in/hr0.0 mm/hr 0.00 in0.0 mm
09:12 AM 63.7°F17.6°C 62.2°F16.8°C 95% 4.9 mph ENE7.9 kmh ENE 4.0 mph6.4 kmh 29.66 in1004.4 mb 0.00 in0.0 mm 0.00 in/hr0.0 mm/hr 0.00 in0.0 mm
09:07 AM 63.7°F17.6°C 62.6°F17.0°C 96% 4.0 mph NE6.4 kmh NE 4.0 mph6.4 kmh 29.66 in1004.4 mb 0.00 in0.0 mm 0.00 in/hr0.0 mm/hr 0.00 in0.0 mm
09:02 AM 63.3°F17.4°C 62.2°F16.8°C 96% 4.9 mph ENE7.9 kmh ENE 2.9 mph4.7 kmh 29.66 in1004.4 mb 0.00 in0.0 mm 0.00 in/hr0.0 mm/hr 0.00 in0.0 mm
08:57 AM 63.1°F17.3°C 62.1°F16.7°C 96% 6.0 mph ENE9.7 kmh ENE 6.0 mph9.7 kmh 29.66 in1004.4 mb 0.00 in0.0 mm 0.00 in/hr0.0 mm/hr 0.00 in0.0 mm
08:52 AM 63.3°F17.4°C 62.2°F16.8°C 96% 4.9 mph ENE7.9 kmh ENE 8.1 mph13.0 kmh 29.66 in1004.4 mb 0.00 in0.0 mm 0.00 in/hr0.0 mm/hr 0.00 in0.0 mm
08:47 AM 63.5°F17.5°C 62.6°F17.0°C 97% 2.9 mph NE4.7 kmh NE 0.9 mph1.4 kmh 29.66 in1004.4 mb 0.00 in0.0 mm 0.00 in/hr0.0 mm/hr 0.00 in0.0 mm
08:42 AM 63.5°F17.5°C 62.6°F17.0°C 97% 2.9 mph NE4.7 kmh NE -- 29.66 in1004.4 mb 0.00 in0.0 mm 0.00 in/hr0.0 mm/hr 0.00 in0.0 mm
08:37 AM 63.7°F17.6°C 62.8°F17.1°C 97% 2.9 mph E4.7 kmh E 2.0 mph3.2 kmh 29.66 in1004.4 mb 0.00 in0.0 mm 0.00 in/hr0.0 mm/hr 0.00 in0.0 mm
08:32 AM 63.7°F17.6°C 62.8°F17.1°C 97% 4.0 mph E6.4 kmh E 2.0 mph3.2 kmh 29.66 in1004.4 mb 0.00 in0.0 mm 0.00 in/hr0.0 mm/hr 0.00 in0.0 mm
08:27 AM 63.7°F17.6°C 62.8°F17.1°C 97% 2.9 mph E4.7 kmh E 6.0 mph9.7 kmh 29.66 in1004.4 mb 0.00 in0.0 mm 0.00 in/hr0.0 mm/hr 0.00 in0.0 mm
08:22 AM 63.7°F17.6°C 62.8°F17.1°C 97% 2.0 mph NE3.2 kmh NE 0.9 mph1.4 kmh 29.66 in1004.4 mb 0.00 in0.0 mm 0.00 in/hr0.0 mm/hr 0.00 in0.0 mm
08:17 AM 63.7°F17.6°C 62.8°F17.1°C 97% 2.0 mph NE3.2 kmh NE 2.0 mph3.2 kmh 29.66 in1004.4 mb 0.00 in0.0 mm 0.00 in/hr0.0 mm/hr 0.00 in0.0 mm
08:12 AM 63.5°F17.5°C 62.6°F17.0°C 97% 2.0 mph NE3.2 kmh NE 0.9 mph1.4 kmh 29.67 in1004.7 mb 0.00 in0.0 mm 0.00 in/hr0.0 mm/hr 0.00 in0.0 mm
08:07 AM 63.3°F17.4°C 62.4°F16.9°C 97% 2.0 mph NE3.2 kmh NE 2.9 mph4.7 kmh 29.67 in1004.7 mb 0.00 in0.0 mm 0.00 in/hr0.0 mm/hr 0.00 in0.0 mm
08:02 AM 63.3°F17.4°C 62.4°F16.9°C 97% 2.0 mph E3.2 kmh E 2.0 mph3.2 kmh 29.67 in1004.7 mb 0.00 in0.0 mm 0.00 in/hr0.0 mm/hr 0.00 in0.0 mm
07:57 AM 63.1°F17.3°C 62.2°F16.8°C 97% 2.9 mph ENE4.7 kmh ENE 2.9 mph4.7 kmh 29.67 in1004.7 mb 0.00 in0.0 mm 0.00 in/hr0.0 mm/hr 0.00 in0.0 mm
07:52 AM 63.1°F17.3°C 62.2°F16.8°C 97% 0.9 mph ENE1.4 kmh ENE 2.0 mph3.2 kmh 29.66 in1004.4 mb 0.00 in0.0 mm 0.00 in/hr0.0 mm/hr 0.00 in0.0 mm
07:47 AM 63.1°F17.3°C 62.2°F16.8°C 97% Calm Calm 2.0 mph3.2 kmh 29.66 in1004.4 mb 0.00 in0.0 mm 0.00 in/hr0.0 mm/hr 0.00 in0.0 mm
07:42 AM 63.0°F17.2°C 62.1°F16.7°C 97% Calm Calm -- 29.66 in1004.4 mb 0.00 in0.0 mm 0.00 in/hr0.0 mm/hr 0.00 in0.0 mm
07:37 AM 63.0°F17.2°C 62.1°F16.7°C 97% Calm Calm -- 29.67 in1004.7 mb 0.00 in0.0 mm 0.00 in/hr0.0 mm/hr 0.00 in0.0 mm
07:32 AM 62.8°F17.1°C 61.9°F16.6°C 97% Calm Calm -- 29.67 in1004.7 mb 0.00 in0.0 mm 0.00 in/hr0.0 mm/hr 0.00 in0.0 mm
07:27 AM 62.8°F17.1°C 61.9°F16.6°C 97% Calm Calm -- 29.68 in1005.1 mb 0.00 in0.0 mm 0.00 in/hr0.0 mm/hr 0.00 in0.0 mm
07:22 AM 62.8°F17.1°C 61.9°F16.6°C 97% Calm Calm -- 29.67 in1004.7 mb 0.00 in0.0 mm 0.00 in/hr0.0 mm/hr 0.00 in0.0 mm
07:17 AM 62.8°F17.1°C 61.9°F16.6°C 97% Calm Calm -- 29.67 in1004.7 mb 0.00 in0.0 mm 0.00 in/hr0.0 mm/hr 0.00 in0.0 mm
07:12 AM 62.6°F17.0°C 61.7°F16.5°C 97% Calm Calm -- 29.66 in1004.4 mb 0.00 in0.0 mm 0.00 in/hr0.0 mm/hr 0.00 in0.0 mm
07:07 AM 62.6°F17.0°C 61.7°F16.5°C 97% Calm Calm -- 29.67 in1004.7 mb 0.00 in0.0 mm 0.00 in/hr0.0 mm/hr 0.00 in0.0 mm
07:02 AM 62.6°F17.0°C 61.7°F16.5°C 97% Calm Calm -- 29.67 in1004.7 mb 0.00 in0.0 mm 0.00 in/hr0.0 mm/hr 0.00 in0.0 mm
06:57 AM 62.6°F17.0°C 61.7°F16.5°C 97% Calm Calm -- 29.66 in1004.4 mb 0.00 in0.0 mm 0.00 in/hr0.0 mm/hr 0.00 in0.0 mm
06:52 AM 62.6°F17.0°C 61.7°F16.5°C 97% Calm Calm -- 29.66 in1004.4 mb 0.00 in0.0 mm 0.00 in/hr0.0 mm/hr 0.00 in0.0 mm
06:47 AM 62.6°F17.0°C 61.7°F16.5°C 97% Calm Calm -- 29.66 in1004.4 mb 0.00 in0.0 mm 0.00 in/hr0.0 mm/hr 0.00 in0.0 mm
06:42 AM 62.6°F17.0°C 61.7°F16.5°C 97% Calm Calm -- 29.66 in1004.4 mb 0.00 in0.0 mm 0.00 in/hr0.0 mm/hr 0.00 in0.0 mm
06:37 AM 62.4°F16.9°C 61.5°F16.4°C 97% Calm Calm 0.9 mph1.4 kmh 29.66 in1004.4 mb 0.00 in0.0 mm 0.00 in/hr0.0 mm/hr 0.00 in0.0 mm
06:32 AM 62.6°F17.0°C 61.7°F16.5°C 97% Calm Calm 0.9 mph1.4 kmh 29.65 in1004.1 mb 0.00 in0.0 mm 0.00 in/hr0.0 mm/hr 0.00 in0.0 mm
06:27 AM 62.4°F16.9°C 61.5°F16.4°C 97% Calm Calm -- 29.65 in1004.1 mb 0.00 in0.0 mm 0.00 in/hr0.0 mm/hr 0.00 in0.0 mm
06:22 AM 62.4°F16.9°C 61.5°F16.4°C 97% Calm Calm -- 29.65 in1004.1 mb 0.00 in0.0 mm 0.00 in/hr0.0 mm/hr 0.00 in0.0 mm
06:17 AM 62.4°F16.9°C 61.5°F16.4°C 97% Calm Calm 0.9 mph1.4 kmh 29.65 in1004.1 mb 0.00 in0.0 mm 0.00 in/hr0.0 mm/hr 0.00 in0.0 mm
06:12 AM 62.4°F16.9°C 61.5°F16.4°C 97% Calm Calm -- 29.65 in1004.1 mb 0.00 in0.0 mm 0.00 in/hr0.0 mm/hr 0.00 in0.0 mm
06:07 AM 62.4°F16.9°C 61.5°F16.4°C 97% Calm Calm -- 29.65 in1004.1 mb 0.00 in0.0 mm 0.00 in/hr0.0 mm/hr 0.00 in0.0 mm
06:02 AM 62.4°F16.9°C 61.5°F16.4°C 97% Calm Calm -- 29.64 in1003.7 mb 0.00 in0.0 mm 0.00 in/hr0.0 mm/hr 0.00 in0.0 mm
05:57 AM 62.4°F16.9°C 61.5°F16.4°C 97% Calm Calm -- 29.64 in1003.7 mb 0.00 in0.0 mm 0.00 in/hr0.0 mm/hr 0.00 in0.0 mm
05:52 AM 62.4°F16.9°C 61.5°F16.4°C 97% Calm Calm -- 29.65 in1004.1 mb 0.00 in0.0 mm 0.00 in/hr0.0 mm/hr 0.00 in0.0 mm
05:47 AM 62.4°F16.9°C 61.5°F16.4°C 97% Calm Calm -- 29.64 in1003.7 mb 0.00 in0.0 mm 0.00 in/hr0.0 mm/hr 0.00 in0.0 mm
05:42 AM 62.4°F16.9°C 61.3°F16.3°C 96% Calm Calm -- 29.64 in1003.7 mb 0.00 in0.0 mm 0.00 in/hr0.0 mm/hr 0.00 in0.0 mm
05:37 AM 62.6°F17.0°C 61.7°F16.5°C 97% Calm Calm -- 29.63 in1003.4 mb 0.00 in0.0 mm 0.00 in/hr0.0 mm/hr 0.00 in0.0 mm
05:32 AM 62.6°F17.0°C 61.7°F16.5°C 97% Calm Calm -- 29.63 in1003.4 mb 0.00 in0.0 mm 0.00 in/hr0.0 mm/hr 0.00 in0.0 mm
05:27 AM 62.8°F17.1°C 61.9°F16.6°C 97% Calm Calm -- 29.63 in1003.4 mb 0.00 in0.0 mm 0.00 in/hr0.0 mm/hr 0.00 in0.0 mm
05:22 AM 62.6°F17.0°C 61.7°F16.5°C 97% Calm Calm -- 29.63 in1003.4 mb 0.00 in0.0 mm 0.00 in/hr0.0 mm/hr 0.00 in0.0 mm
05:17 AM 62.6°F17.0°C 61.7°F16.5°C 97% Calm Calm 0.9 mph1.4 kmh 29.62 in1003.0 mb 0.00 in0.0 mm 0.00 in/hr0.0 mm/hr 0.00 in0.0 mm
05:12 AM 62.4°F16.9°C 61.5°F16.4°C 97% Calm Calm -- 29.63 in1003.4 mb 0.00 in0.0 mm 0.00 in/hr0.0 mm/hr 0.00 in0.0 mm
05:07 AM 62.4°F16.9°C 61.5°F16.4°C 97% Calm Calm -- 29.63 in1003.4 mb 0.00 in0.0 mm 0.00 in/hr0.0 mm/hr 0.00 in0.0 mm
05:02 AM 62.4°F16.9°C 61.5°F16.4°C 97% Calm Calm -- 29.63 in1003.4 mb 0.00 in0.0 mm 0.00 in/hr0.0 mm/hr 0.00 in0.0 mm
04:57 AM 62.4°F16.9°C 61.5°F16.4°C 97% Calm Calm -- 29.63 in1003.4 mb 0.00 in0.0 mm 0.00 in/hr0.0 mm/hr 0.00 in0.0 mm
04:52 AM 62.4°F16.9°C 61.5°F16.4°C 97% Calm Calm -- 29.63 in1003.4 mb 0.00 in0.0 mm 0.00 in/hr0.0 mm/hr 0.00 in0.0 mm
04:47 AM 62.4°F16.9°C 61.5°F16.4°C 97% Calm Calm -- 29.63 in1003.4 mb 0.00 in0.0 mm 0.00 in/hr0.0 mm/hr 0.00 in0.0 mm
04:42 AM 62.4°F16.9°C 61.5°F16.4°C 97% Calm Calm -- 29.62 in1003.0 mb 0.00 in0.0 mm 0.00 in/hr0.0 mm/hr 0.00 in0.0 mm
04:37 AM 62.4°F16.9°C 61.5°F16.4°C 97% Calm Calm -- 29.63 in1003.4 mb 0.00 in0.0 mm 0.00 in/hr0.0 mm/hr 0.00 in0.0 mm
04:32 AM 62.4°F16.9°C 61.5°F16.4°C 97% Calm Calm -- 29.62 in1003.0 mb 0.00 in0.0 mm 0.00 in/hr0.0 mm/hr 0.00 in0.0 mm
04:27 AM 62.4°F16.9°C 61.5°F16.4°C 97% Calm Calm -- 29.62 in1003.0 mb 0.00 in0.0 mm 0.00 in/hr0.0 mm/hr 0.00 in0.0 mm
04:22 AM 62.4°F16.9°C 61.3°F16.3°C 96% Calm Calm -- 29.62 in1003.0 mb 0.00 in0.0 mm 0.00 in/hr0.0 mm/hr 0.00 in0.0 mm
04:17 AM 62.4°F16.9°C 61.3°F16.3°C 96% Calm Calm -- 29.62 in1003.0 mb 0.00 in0.0 mm 0.00 in/hr0.0 mm/hr 0.00 in0.0 mm
04:12 AM 62.4°F16.9°C 61.3°F16.3°C 96% Calm Calm -- 29.62 in1003.0 mb 0.00 in0.0 mm 0.00 in/hr0.0 mm/hr 0.00 in0.0 mm
04:07 AM 62.4°F16.9°C 61.3°F16.3°C 96% Calm Calm -- 29.62 in1003.0 mb 0.00 in0.0 mm 0.00 in/hr0.0 mm/hr 0.00 in0.0 mm
04:02 AM 62.4°F16.9°C 61.3°F16.3°C 96% 0.9 mph WSW1.4 kmh WSW -- 29.62 in1003.0 mb 0.00 in0.0 mm 0.00 in/hr0.0 mm/hr 0.00 in0.0 mm
03:57 AM 62.4°F16.9°C 61.3°F16.3°C 96% 0.9 mph WSW1.4 kmh WSW -- 29.62 in1003.0 mb 0.00 in0.0 mm 0.00 in/hr0.0 mm/hr 0.00 in0.0 mm
03:52 AM 62.4°F16.9°C 61.3°F16.3°C 96% 0.9 mph WSW1.4 kmh WSW -- 29.62 in1003.0 mb 0.00 in0.0 mm 0.00 in/hr0.0 mm/hr 0.00 in0.0 mm
03:47 AM 62.4°F16.9°C 61.3°F16.3°C 96% 0.9 mph WSW1.4 kmh WSW -- 29.62 in1003.0 mb 0.00 in0.0 mm 0.00 in/hr0.0 mm/hr 0.00 in0.0 mm
03:42 AM 62.4°F16.9°C 61.5°F16.4°C 97% 0.9 mph WSW1.4 kmh WSW 2.0 mph3.2 kmh 29.62 in1003.0 mb 0.00 in0.0 mm 0.00 in/hr0.0 mm/hr 0.00 in0.0 mm
03:37 AM 62.4°F16.9°C 61.5°F16.4°C 97% 0.9 mph WSW1.4 kmh WSW 2.0 mph3.2 kmh 29.62 in1003.0 mb 0.00 in0.0 mm 0.00 in/hr0.0 mm/hr 0.00 in0.0 mm
03:32 AM 62.4°F16.9°C 61.5°F16.4°C 97% Calm Calm 0.9 mph1.4 kmh 29.62 in1003.0 mb 0.00 in0.0 mm 0.00 in/hr0.0 mm/hr 0.00 in0.0 mm
03:27 AM 62.4°F16.9°C 61.3°F16.3°C 96% Calm Calm -- 29.62 in1003.0 mb 0.00 in0.0 mm 0.00 in/hr0.0 mm/hr 0.00 in0.0 mm
03:22 AM 62.4°F16.9°C 61.5°F16.4°C 97% Calm Calm -- 29.62 in1003.0 mb 0.00 in0.0 mm 0.00 in/hr0.0 mm/hr 0.00 in0.0 mm
03:17 AM 62.4°F16.9°C 61.3°F16.3°C 96% Calm Calm 0.9 mph1.4 kmh 29.62 in1003.0 mb 0.00 in0.0 mm 0.00 in/hr0.0 mm/hr 0.00 in0.0 mm
03:12 AM 62.4°F16.9°C 61.3°F16.3°C 96% Calm Calm -- 29.62 in1003.0 mb 0.00 in0.0 mm 0.00 in/hr0.0 mm/hr 0.00 in0.0 mm
03:07 AM 62.4°F16.9°C 61.3°F16.3°C 96% 0.9 mph WSW1.4 kmh WSW -- 29.62 in1003.0 mb 0.00 in0.0 mm 0.00 in/hr0.0 mm/hr 0.00 in0.0 mm
03:02 AM 62.4°F16.9°C 61.3°F16.3°C 96% 0.9 mph WSW1.4 kmh WSW -- 29.62 in1003.0 mb 0.00 in0.0 mm 0.00 in/hr0.0 mm/hr 0.00 in0.0 mm
02:57 AM 62.4°F16.9°C 61.3°F16.3°C 96% 2.0 mph WSW3.2 kmh WSW 2.0 mph3.2 kmh 29.62 in1003.0 mb 0.00 in0.0 mm 0.00 in/hr0.0 mm/hr 0.00 in0.0 mm
02:52 AM 62.4°F16.9°C 61.3°F16.3°C 96% 0.9 mph W1.4 kmh W -- 29.62 in1003.0 mb 0.00 in0.0 mm 0.00 in/hr0.0 mm/hr 0.00 in0.0 mm
02:47 AM 62.4°F16.9°C 61.3°F16.3°C 96% 0.9 mph WSW1.4 kmh WSW -- 29.62 in1003.0 mb 0.00 in0.0 mm 0.00 in/hr0.0 mm/hr 0.00 in0.0 mm
02:42 AM 62.4°F16.9°C 61.3°F16.3°C 96% 0.9 mph WSW1.4 kmh WSW 2.0 mph3.2 kmh 29.63 in1003.4 mb 0.00 in0.0 mm 0.00 in/hr0.0 mm/hr 0.00 in0.0 mm
02:37 AM 62.4°F16.9°C 61.3°F16.3°C 96% 0.9 mph WSW1.4 kmh WSW 2.0 mph3.2 kmh 29.63 in1003.4 mb 0.00 in0.0 mm 0.00 in/hr0.0 mm/hr 0.00 in0.0 mm
02:32 AM 62.4°F16.9°C 61.3°F16.3°C 96% 0.9 mph WSW1.4 kmh WSW 2.0 mph3.2 kmh 29.63 in1003.4 mb 0.00 in0.0 mm 0.00 in/hr0.0 mm/hr 0.00 in0.0 mm
02:27 AM 62.6°F17.0°C 61.5°F16.4°C 96% 2.0 mph WSW3.2 kmh WSW 0.9 mph1.4 kmh 29.63 in1003.4 mb 0.00 in0.0 mm 0.00 in/hr0.0 mm/hr 0.00 in0.0 mm
02:22 AM 62.6°F17.0°C 61.5°F16.4°C 96% 2.0 mph WSW3.2 kmh WSW -- 29.63 in1003.4 mb 0.00 in0.0 mm 0.00 in/hr0.0 mm/hr 0.00 in0.0 mm
02:17 AM 62.6°F17.0°C 61.5°F16.4°C 96% 2.9 mph WSW4.7 kmh WSW 2.0 mph3.2 kmh 29.63 in1003.4 mb 0.00 in0.0 mm 0.00 in/hr0.0 mm/hr 0.00 in0.0 mm
02:12 AM 62.6°F17.0°C 61.5°F16.4°C 96% 2.0 mph W3.2 kmh W 0.9 mph1.4 kmh 29.63 in1003.4 mb 0.00 in0.0 mm 0.00 in/hr0.0 mm/hr 0.00 in0.0 mm
02:07 AM 62.4°F16.9°C 61.3°F16.3°C 96% 2.0 mph SW3.2 kmh SW 6.0 mph9.7 kmh 29.63 in1003.4 mb 0.00 in0.0 mm 0.00 in/hr0.0 mm/hr 0.00 in0.0 mm
02:02 AM 62.4°F16.9°C 61.3°F16.3°C 96% 0.9 mph SW1.4 kmh SW 0.9 mph1.4 kmh 29.63 in1003.4 mb 0.00 in0.0 mm 0.00 in/hr0.0 mm/hr 0.00 in0.0 mm
01:57 AM 62.4°F16.9°C 61.3°F16.3°C 96% 0.9 mph WSW1.4 kmh WSW 0.9 mph1.4 kmh 29.63 in1003.4 mb 0.00 in0.0 mm 0.00 in/hr0.0 mm/hr 0.00 in0.0 mm
01:52 AM 62.4°F16.9°C 61.3°F16.3°C 96% 0.9 mph WSW1.4 kmh WSW -- 29.62 in1003.0 mb 0.00 in0.0 mm 0.00 in/hr0.0 mm/hr 0.00 in0.0 mm
01:47 AM 62.4°F16.9°C 61.3°F16.3°C 96% Calm Calm -- 29.62 in1003.0 mb 0.00 in0.0 mm 0.00 in/hr0.0 mm/hr 0.00 in0.0 mm
01:42 AM 62.4°F16.9°C 61.3°F16.3°C 96% Calm Calm -- 29.62 in1003.0 mb 0.00 in0.0 mm 0.00 in/hr0.0 mm/hr 0.00 in0.0 mm
01:37 AM 62.4°F16.9°C 61.3°F16.3°C 96% Calm Calm -- 29.63 in1003.4 mb 0.00 in0.0 mm 0.00 in/hr0.0 mm/hr 0.00 in0.0 mm
01:32 AM 62.4°F16.9°C 61.3°F16.3°C 96% Calm Calm -- 29.62 in1003.0 mb 0.00 in0.0 mm 0.00 in/hr0.0 mm/hr 0.00 in0.0 mm
01:27 AM 62.4°F16.9°C 61.3°F16.3°C 96% Calm Calm -- 29.63 in1003.4 mb 0.00 in0.0 mm 0.00 in/hr0.0 mm/hr 0.00 in0.0 mm
01:22 AM 62.4°F16.9°C 61.3°F16.3°C 96% Calm Calm -- 29.62 in1003.0 mb 0.00 in0.0 mm 0.00 in/hr0.0 mm/hr 0.00 in0.0 mm
01:17 AM 62.4°F16.9°C 61.3°F16.3°C 96% Calm Calm -- 29.62 in1003.0 mb 0.00 in0.0 mm 0.00 in/hr0.0 mm/hr 0.00 in0.0 mm
01:12 AM 62.4°F16.9°C 61.3°F16.3°C 96% Calm Calm -- 29.61 in1002.7 mb 0.00 in0.0 mm 0.00 in/hr0.0 mm/hr 0.00 in0.0 mm
01:07 AM 62.4°F16.9°C 61.3°F16.3°C 96% Calm Calm -- 29.61 in1002.7 mb 0.00 in0.0 mm 0.00 in/hr0.0 mm/hr 0.00 in0.0 mm
01:02 AM 62.6°F17.0°C 61.5°F16.4°C 96% Calm Calm -- 29.61 in1002.7 mb 0.00 in0.0 mm 0.00 in/hr0.0 mm/hr 0.00 in0.0 mm
12:57 AM 62.8°F17.1°C 61.7°F16.5°C 96% Calm Calm 0.9 mph1.4 kmh 29.62 in1003.0 mb 0.00 in0.0 mm 0.00 in/hr0.0 mm/hr 0.00 in0.0 mm
12:52 AM 62.8°F17.1°C 61.7°F16.5°C 96% Calm Calm -- 29.61 in1002.7 mb 0.00 in0.0 mm 0.00 in/hr0.0 mm/hr 0.00 in0.0 mm
12:47 AM 62.8°F17.1°C 61.7°F16.5°C 96% 0.9 mph WSW1.4 kmh WSW 0.9 mph1.4 kmh 29.62 in1003.0 mb 0.00 in0.0 mm 0.00 in/hr0.0 mm/hr 0.00 in0.0 mm
12:42 AM 62.8°F17.1°C 61.7°F16.5°C 96% 0.9 mph WSW1.4 kmh WSW -- 29.62 in1003.0 mb 0.00 in0.0 mm 0.00 in/hr0.0 mm/hr 0.00 in0.0 mm
12:37 AM 62.8°F17.1°C 61.7°F16.5°C 96% Calm Calm 0.9 mph1.4 kmh 29.62 in1003.0 mb 0.00 in0.0 mm 0.00 in/hr0.0 mm/hr 0.00 in0.0 mm
12:32 AM 62.8°F17.1°C 61.7°F16.5°C 96% Calm Calm -- 29.62 in1003.0 mb 0.00 in0.0 mm 0.00 in/hr0.0 mm/hr 0.00 in0.0 mm
12:27 AM 62.8°F17.1°C 61.3°F16.3°C 95% 0.9 mph WSW1.4 kmh WSW -- 29.62 in1003.0 mb 0.00 in0.0 mm 0.00 in/hr0.0 mm/hr 0.00 in0.0 mm
12:22 AM 62.8°F17.1°C 61.3°F16.3°C 95% 0.9 mph WSW1.4 kmh WSW 2.0 mph3.2 kmh 29.62 in1003.0 mb 0.00 in0.0 mm 0.00 in/hr0.0 mm/hr 0.00 in0.0 mm
12:17 AM 62.8°F17.1°C 61.3°F16.3°C 95% 0.9 mph WSW1.4 kmh WSW 0.9 mph1.4 kmh 29.62 in1003.0 mb 0.00 in0.0 mm 0.00 in/hr0.0 mm/hr 0.00 in0.0 mm
12:12 AM 62.8°F17.1°C 61.3°F16.3°C 95% 0.9 mph WSW1.4 kmh WSW 0.9 mph1.4 kmh 29.62 in1003.0 mb 0.00 in0.0 mm 0.00 in/hr0.0 mm/hr 0.00 in0.0 mm
12:07 AM 62.8°F17.1°C 61.3°F16.3°C 95% Calm Calm 2.9 mph4.7 kmh 29.62 in1003.0 mb 0.00 in0.0 mm 0.00 in/hr0.0 mm/hr 0.00 in0.0 mm
12:02 AM 62.8°F17.1°C 61.3°F16.3°C 95% Calm Calm -- 29.61 in1002.7 mb 0.00 in0.0 mm 0.00 in/hr0.0 mm/hr 0.00 in0.0 mm